Aviation Digital Data Service (ADDS)

Output produced by METARs form (2212 UTC 16 February 2019)
found at http://www.aviationweather.gov/metar/data/
 
Forecast for: MMAA (ACAPULCO/G. ALVA, MX)
Text: TAF MMAA 161636Z 1618/1724 25010KT P6SM SCT015 TX29/1620Z TN21/1712Z
Forecast period: 1800 UTC 16 February 2019 to 0000 UTC 17 February 2019
Forecast type: FROM: standard forecast or significant change
Winds: from the WSW (250 degrees) at 12 MPH (10 knots; 5.1 m/s)
Visibility: 6 or more miles 10+ km)
Ceiling: at least 12,000 feet AGL
Clouds: scattered clouds at 1500 feet AGL
Weather: no significant weather forecast for this period
Text: FM170000 34005KT P6SM SKC
Forecast period: 0000 to 1800 UTC 17 February 2019
Forecast type: FROM: standard forecast or significant change
Winds: from the NNW (340 degrees) at 6 MPH (5 knots; 2.6 m/s)
Visibility: 6 or more miles 10+ km)
Clouds: clear skies
Weather: no significant weather forecast for this period
Text: FM171800 23010KT P6SM SKC
Forecast period: 1800 UTC 17 February 2019 to 0000 UTC 18 February 2019
Forecast type: FROM: standard forecast or significant change
Winds: from the SW (230 degrees) at 12 MPH (10 knots; 5.1 m/s)
Visibility: 6 or more miles 10+ km)
Clouds: clear skies
Weather: no significant weather forecast for this period